sensor_id;sensor_type;location;lat;lon;timestamp;temperature;humidity
17415;DHT22;8825;48.086;16.426;2024-02-26T00:02:10;9.00;65.90
17415;DHT22;8825;48.086;16.426;2024-02-26T00:04:38;9.10;65.80
17415;DHT22;8825;48.086;16.426;2024-02-26T00:07:05;9.00;65.70
17415;DHT22;8825;48.086;16.426;2024-02-26T00:09:33;9.10;65.70
17415;DHT22;8825;48.086;16.426;2024-02-26T00:12:03;9.10;65.70
17415;DHT22;8825;48.086;16.426;2024-02-26T00:14:31;9.10;65.70
17415;DHT22;8825;48.086;16.426;2024-02-26T00:16:59;9.00;65.80
17415;DHT22;8825;48.086;16.426;2024-02-26T00:19:27;9.00;65.80
17415;DHT22;8825;48.086;16.426;2024-02-26T00:21:54;9.00;65.80
17415;DHT22;8825;48.086;16.426;2024-02-26T00:24:22;9.00;65.90
17415;DHT22;8825;48.086;16.426;2024-02-26T00:26:49;9.00;65.80
17415;DHT22;8825;48.086;16.426;2024-02-26T00:29:19;9.00;65.70
17415;DHT22;8825;48.086;16.426;2024-02-26T00:31:47;9.00;65.70
17415;DHT22;8825;48.086;16.426;2024-02-26T00:34:14;9.00;65.80
17415;DHT22;8825;48.086;16.426;2024-02-26T00:36:42;9.00;65.80
17415;DHT22;8825;48.086;16.426;2024-02-26T00:39:11;9.00;66.70
17415;DHT22;8825;48.086;16.426;2024-02-26T00:41:43;9.00;65.20
17415;DHT22;8825;48.086;16.426;2024-02-26T00:44:08;8.90;65.90
17415;DHT22;8825;48.086;16.426;2024-02-26T00:46:35;8.90;66.10
17415;DHT22;8825;48.086;16.426;2024-02-26T00:49:03;8.90;66.20
17415;DHT22;8825;48.086;16.426;2024-02-26T00:51:31;8.80;66.30
17415;DHT22;8825;48.086;16.426;2024-02-26T00:53:58;8.80;66.30
17415;DHT22;8825;48.086;16.426;2024-02-26T00:56:26;8.80;66.40
17415;DHT22;8825;48.086;16.426;2024-02-26T00:58:53;8.80;66.60
17415;DHT22;8825;48.086;16.426;2024-02-26T01:01:21;8.80;66.50
17415;DHT22;8825;48.086;16.426;2024-02-26T01:03:49;8.80;66.70
17415;DHT22;8825;48.086;16.426;2024-02-26T01:06:16;8.70;66.60
17415;DHT22;8825;48.086;16.426;2024-02-26T01:08:44;8.70;66.70
17415;DHT22;8825;48.086;16.426;2024-02-26T01:11:11;8.70;66.80
17415;DHT22;8825;48.086;16.426;2024-02-26T01:13:38;8.60;66.80
17415;DHT22;8825;48.086;16.426;2024-02-26T01:16:06;8.60;66.80
17415;DHT22;8825;48.086;16.426;2024-02-26T01:18:34;8.60;67.00
17415;DHT22;8825;48.086;16.426;2024-02-26T01:21:01;8.50;67.00
17415;DHT22;8825;48.086;16.426;2024-02-26T01:23:31;8.50;67.20
17415;DHT22;8825;48.086;16.426;2024-02-26T01:25:58;8.50;67.20
17415;DHT22;8825;48.086;16.426;2024-02-26T01:28:26;8.40;67.40
17415;DHT22;8825;48.086;16.426;2024-02-26T01:30:53;8.40;67.40
17415;DHT22;8825;48.086;16.426;2024-02-26T01:33:21;8.40;67.40
17415;DHT22;8825;48.086;16.426;2024-02-26T01:35:48;8.40;67.50
17415;DHT22;8825;48.086;16.426;2024-02-26T01:38:17;8.40;67.50
17415;DHT22;8825;48.086;16.426;2024-02-26T01:40:45;8.40;67.30
17415;DHT22;8825;48.086;16.426;2024-02-26T01:43:12;8.40;67.40
17415;DHT22;8825;48.086;16.426;2024-02-26T01:45:40;8.40;67.40
17415;DHT22;8825;48.086;16.426;2024-02-26T01:48:07;8.40;67.40
17415;DHT22;8825;48.086;16.426;2024-02-26T01:50:36;8.40;67.30
17415;DHT22;8825;48.086;16.426;2024-02-26T01:53:05;8.40;67.30
17415;DHT22;8825;48.086;16.426;2024-02-26T01:55:33;8.40;67.30
17415;DHT22;8825;48.086;16.426;2024-02-26T01:58:01;8.30;67.20
17415;DHT22;8825;48.086;16.426;2024-02-26T02:00:29;8.20;67.30
17415;DHT22;8825;48.086;16.426;2024-02-26T02:02:57;8.20;67.30
17415;DHT22;8825;48.086;16.426;2024-02-26T02:05:25;8.20;67.20
17415;DHT22;8825;48.086;16.426;2024-02-26T02:07:54;8.20;67.10
17415;DHT22;8825;48.086;16.426;2024-02-26T02:10:21;8.20;67.10
17415;DHT22;8825;48.086;16.426;2024-02-26T02:12:52;8.20;67.10
17415;DHT22;8825;48.086;16.426;2024-02-26T02:15:20;8.10;67.40
17415;DHT22;8825;48.086;16.426;2024-02-26T02:17:48;8.10;68.00
17415;DHT22;8825;48.086;16.426;2024-02-26T02:20:17;8.10;68.10
17415;DHT22;8825;48.086;16.426;2024-02-26T02:22:45;8.20;68.10
17415;DHT22;8825;48.086;16.426;2024-02-26T02:25:13;8.20;68.20
17415;DHT22;8825;48.086;16.426;2024-02-26T02:27:41;8.20;68.20
17415;DHT22;8825;48.086;16.426;2024-02-26T02:30:11;8.20;68.50
17415;DHT22;8825;48.086;16.426;2024-02-26T02:32:40;8.20;68.60
17415;DHT22;8825;48.086;16.426;2024-02-26T02:35:08;8.20;68.90
17415;DHT22;8825;48.086;16.426;2024-02-26T02:37:35;8.20;68.90
17415;DHT22;8825;48.086;16.426;2024-02-26T02:40:04;8.20;68.90
17415;DHT22;8825;48.086;16.426;2024-02-26T02:42:31;8.20;69.00
17415;DHT22;8825;48.086;16.426;2024-02-26T02:44:59;8.20;68.90
17415;DHT22;8825;48.086;16.426;2024-02-26T02:47:26;8.20;68.90
17415;DHT22;8825;48.086;16.426;2024-02-26T02:49:54;8.20;69.80
17415;DHT22;8825;48.086;16.426;2024-02-26T02:52:22;8.20;68.90
17415;DHT22;8825;48.086;16.426;2024-02-26T02:54:49;8.30;69.00
17415;DHT22;8825;48.086;16.426;2024-02-26T02:57:16;8.30;69.00
17415;DHT22;8825;48.086;16.426;2024-02-26T02:59:44;8.20;69.20
17415;DHT22;8825;48.086;16.426;2024-02-26T03:02:12;8.20;69.30
17415;DHT22;8825;48.086;16.426;2024-02-26T03:04:39;8.10;69.30
17415;DHT22;8825;48.086;16.426;2024-02-26T03:07:07;8.20;69.50
17415;DHT22;8825;48.086;16.426;2024-02-26T03:09:34;8.10;69.50
17415;DHT22;8825;48.086;16.426;2024-02-26T03:12:02;8.10;69.60
17415;DHT22;8825;48.086;16.426;2024-02-26T03:14:29;8.10;69.80
17415;DHT22;8825;48.086;16.426;2024-02-26T03:16:57;8.10;69.70
17415;DHT22;8825;48.086;16.426;2024-02-26T03:19:25;8.10;70.60
17415;DHT22;8825;48.086;16.426;2024-02-26T03:21:52;8.10;69.70
17415;DHT22;8825;48.086;16.426;2024-02-26T03:24:20;8.10;69.60
17415;DHT22;8825;48.086;16.426;2024-02-26T03:26:47;8.10;69.60
17415;DHT22;8825;48.086;16.426;2024-02-26T03:29:15;8.10;69.50
17415;DHT22;8825;48.086;16.426;2024-02-26T03:31:43;8.20;69.60
17415;DHT22;8825;48.086;16.426;2024-02-26T03:34:10;8.20;69.50
17415;DHT22;8825;48.086;16.426;2024-02-26T03:36:39;8.10;69.50
17415;DHT22;8825;48.086;16.426;2024-02-26T03:39:06;8.20;69.60
17415;DHT22;8825;48.086;16.426;2024-02-26T03:41:34;8.20;69.40
17415;DHT22;8825;48.086;16.426;2024-02-26T03:44:02;8.30;69.30
17415;DHT22;8825;48.086;16.426;2024-02-26T03:46:30;8.20;69.30
17415;DHT22;8825;48.086;16.426;2024-02-26T03:48:57;8.20;69.40
17415;DHT22;8825;48.086;16.426;2024-02-26T03:51:25;8.20;69.50
17415;DHT22;8825;48.086;16.426;2024-02-26T03:53:54;8.20;69.60
17415;DHT22;8825;48.086;16.426;2024-02-26T03:56:22;8.10;69.70
17415;DHT22;8825;48.086;16.426;2024-02-26T03:58:49;8.10;70.00
17415;DHT22;8825;48.086;16.426;2024-02-26T04:01:17;8.10;69.80
17415;DHT22;8825;48.086;16.426;2024-02-26T04:03:45;8.10;69.90
17415;DHT22;8825;48.086;16.426;2024-02-26T04:06:12;8.10;69.90
17415;DHT22;8825;48.086;16.426;2024-02-26T04:08:44;8.10;70.10
17415;DHT22;8825;48.086;16.426;2024-02-26T04:11:12;8.00;70.00
17415;DHT22;8825;48.086;16.426;2024-02-26T04:13:42;8.00;70.20
17415;DHT22;8825;48.086;16.426;2024-02-26T04:16:11;8.00;70.30
17415;DHT22;8825;48.086;16.426;2024-02-26T04:18:39;8.00;70.40
17415;DHT22;8825;48.086;16.426;2024-02-26T04:21:06;8.00;70.40
17415;DHT22;8825;48.086;16.426;2024-02-26T04:23:33;8.00;70.40
17415;DHT22;8825;48.086;16.426;2024-02-26T04:26:01;8.00;70.60
17415;DHT22;8825;48.086;16.426;2024-02-26T04:28:29;7.90;70.70
17415;DHT22;8825;48.086;16.426;2024-02-26T04:30:56;7.90;70.80
17415;DHT22;8825;48.086;16.426;2024-02-26T04:33:24;7.90;71.20
17415;DHT22;8825;48.086;16.426;2024-02-26T04:35:51;7.80;71.40
17415;DHT22;8825;48.086;16.426;2024-02-26T04:38:19;7.70;71.60
17415;DHT22;8825;48.086;16.426;2024-02-26T04:40:46;7.70;71.90
17415;DHT22;8825;48.086;16.426;2024-02-26T04:43:14;7.50;72.30
17415;DHT22;8825;48.086;16.426;2024-02-26T04:45:42;7.40;73.00
17415;DHT22;8825;48.086;16.426;2024-02-26T04:48:09;7.30;73.70
17415;DHT22;8825;48.086;16.426;2024-02-26T04:50:37;7.20;74.30
17415;DHT22;8825;48.086;16.426;2024-02-26T04:53:04;7.10;75.20
17415;DHT22;8825;48.086;16.426;2024-02-26T04:55:32;7.00;75.80
17415;DHT22;8825;48.086;16.426;2024-02-26T04:57:59;6.90;76.30
17415;DHT22;8825;48.086;16.426;2024-02-26T05:00:27;6.80;76.90
17415;DHT22;8825;48.086;16.426;2024-02-26T05:02:54;6.80;77.10
17415;DHT22;8825;48.086;16.426;2024-02-26T05:05:22;6.80;77.20
17415;DHT22;8825;48.086;16.426;2024-02-26T05:07:49;6.70;77.60
17415;DHT22;8825;48.086;16.426;2024-02-26T05:10:17;6.80;77.70
17415;DHT22;8825;48.086;16.426;2024-02-26T05:12:44;6.80;77.70
17415;DHT22;8825;48.086;16.426;2024-02-26T05:15:12;6.80;77.70
17415;DHT22;8825;48.086;16.426;2024-02-26T05:17:41;6.80;77.60
17415;DHT22;8825;48.086;16.426;2024-02-26T05:20:09;6.80;77.50
17415;DHT22;8825;48.086;16.426;2024-02-26T05:22:37;6.80;77.30
17415;DHT22;8825;48.086;16.426;2024-02-26T05:25:05;6.90;77.20
17415;DHT22;8825;48.086;16.426;2024-02-26T05:27:32;6.80;76.90
17415;DHT22;8825;48.086;16.426;2024-02-26T05:30:00;6.90;76.90
17415;DHT22;8825;48.086;16.426;2024-02-26T05:32:27;6.90;76.60
17415;DHT22;8825;48.086;16.426;2024-02-26T05:34:55;7.00;76.20
17415;DHT22;8825;48.086;16.426;2024-02-26T05:37:22;7.00;75.80
17415;DHT22;8825;48.086;16.426;2024-02-26T05:39:50;7.10;75.30
17415;DHT22;8825;48.086;16.426;2024-02-26T05:42:18;7.00;74.80
17415;DHT22;8825;48.086;16.426;2024-02-26T05:44:46;7.00;74.70
17415;DHT22;8825;48.086;16.426;2024-02-26T05:47:13;6.90;75.50
17415;DHT22;8825;48.086;16.426;2024-02-26T05:49:41;6.80;76.10
17415;DHT22;8825;48.086;16.426;2024-02-26T05:52:08;6.90;76.10
17415;DHT22;8825;48.086;16.426;2024-02-26T05:54:36;7.00;75.90
17415;DHT22;8825;48.086;16.426;2024-02-26T05:57:03;7.00;75.90
17415;DHT22;8825;48.086;16.426;2024-02-26T05:59:31;7.10;75.50
17415;DHT22;8825;48.086;16.426;2024-02-26T06:01:58;7.10;75.30
17415;DHT22;8825;48.086;16.426;2024-02-26T06:04:26;7.10;75.00
17415;DHT22;8825;48.086;16.426;2024-02-26T06:06:53;7.20;74.90
17415;DHT22;8825;48.086;16.426;2024-02-26T06:09:22;7.20;74.80
17415;DHT22;8825;48.086;16.426;2024-02-26T06:11:49;7.20;74.60
17415;DHT22;8825;48.086;16.426;2024-02-26T06:14:17;7.20;74.60
17415;DHT22;8825;48.086;16.426;2024-02-26T06:16:46;7.30;74.60
17415;DHT22;8825;48.086;16.426;2024-02-26T06:19:13;7.30;74.50
17415;DHT22;8825;48.086;16.426;2024-02-26T06:21:41;7.30;74.50
17415;DHT22;8825;48.086;16.426;2024-02-26T06:24:08;7.30;74.30
17415;DHT22;8825;48.086;16.426;2024-02-26T06:26:36;7.40;74.30
17415;DHT22;8825;48.086;16.426;2024-02-26T06:29:03;7.40;74.20
17415;DHT22;8825;48.086;16.426;2024-02-26T06:31:31;7.50;74.00
17415;DHT22;8825;48.086;16.426;2024-02-26T06:33:58;7.50;73.90
17415;DHT22;8825;48.086;16.426;2024-02-26T06:36:26;7.60;73.90
17415;DHT22;8825;48.086;16.426;2024-02-26T06:38:53;7.70;73.80
17415;DHT22;8825;48.086;16.426;2024-02-26T06:41:21;7.70;73.80
17415;DHT22;8825;48.086;16.426;2024-02-26T06:43:50;7.70;73.80
17415;DHT22;8825;48.086;16.426;2024-02-26T06:46:17;7.80;73.70
17415;DHT22;8825;48.086;16.426;2024-02-26T06:48:45;7.80;73.90
17415;DHT22;8825;48.086;16.426;2024-02-26T06:51:12;7.80;74.00
17415;DHT22;8825;48.086;16.426;2024-02-26T06:53:40;7.90;74.10
17415;DHT22;8825;48.086;16.426;2024-02-26T06:56:08;7.90;74.10
17415;DHT22;8825;48.086;16.426;2024-02-26T06:58:35;7.90;74.30
17415;DHT22;8825;48.086;16.426;2024-02-26T07:01:03;8.00;74.50
17415;DHT22;8825;48.086;16.426;2024-02-26T07:03:30;8.00;74.60
17415;DHT22;8825;48.086;16.426;2024-02-26T07:06:18;8.00;74.60
17415;DHT22;8825;48.086;16.426;2024-02-26T07:09:05;8.10;75.00
17415;DHT22;8825;48.086;16.426;2024-02-26T07:11:33;8.20;74.20
17415;DHT22;8825;48.086;16.426;2024-02-26T07:14:00;8.20;74.30
17415;DHT22;8825;48.086;16.426;2024-02-26T07:16:28;8.30;74.20
17415;DHT22;8825;48.086;16.426;2024-02-26T07:18:55;8.30;74.10
17415;DHT22;8825;48.086;16.426;2024-02-26T07:21:23;8.30;74.00
17415;DHT22;8825;48.086;16.426;2024-02-26T07:23:50;8.40;73.90
17415;DHT22;8825;48.086;16.426;2024-02-26T07:26:18;8.50;73.90
17415;DHT22;8825;48.086;16.426;2024-02-26T07:28:46;8.50;73.80
17415;DHT22;8825;48.086;16.426;2024-02-26T07:31:13;8.50;73.80
17415;DHT22;8825;48.086;16.426;2024-02-26T07:33:41;8.50;73.80
17415;DHT22;8825;48.086;16.426;2024-02-26T07:36:08;8.60;73.90
17415;DHT22;8825;48.086;16.426;2024-02-26T07:38:36;8.70;73.70
17415;DHT22;8825;48.086;16.426;2024-02-26T07:41:04;8.80;73.50
17415;DHT22;8825;48.086;16.426;2024-02-26T07:43:32;8.90;73.40
17415;DHT22;8825;48.086;16.426;2024-02-26T07:45:59;8.90;73.30
17415;DHT22;8825;48.086;16.426;2024-02-26T07:48:27;9.00;73.20
17415;DHT22;8825;48.086;16.426;2024-02-26T07:50:54;9.00;73.00
17415;DHT22;8825;48.086;16.426;2024-02-26T07:53:22;9.10;73.30
17415;DHT22;8825;48.086;16.426;2024-02-26T07:55:49;9.10;73.00
17415;DHT22;8825;48.086;16.426;2024-02-26T07:58:17;9.20;72.90
17415;DHT22;8825;48.086;16.426;2024-02-26T08:00:44;9.30;72.50
17415;DHT22;8825;48.086;16.426;2024-02-26T08:03:13;9.30;72.30
17415;DHT22;8825;48.086;16.426;2024-02-26T08:05:42;9.40;71.90
17415;DHT22;8825;48.086;16.426;2024-02-26T08:08:10;9.50;71.50
17415;DHT22;8825;48.086;16.426;2024-02-26T08:10:38;9.60;71.70
17415;DHT22;8825;48.086;16.426;2024-02-26T08:13:05;9.60;70.40
17415;DHT22;8825;48.086;16.426;2024-02-26T08:15:33;9.70;70.00
17415;DHT22;8825;48.086;16.426;2024-02-26T08:18:01;9.80;69.70
17415;DHT22;8825;48.086;16.426;2024-02-26T08:20:30;9.90;69.40
17415;DHT22;8825;48.086;16.426;2024-02-26T08:22:58;9.90;68.70
17415;DHT22;8825;48.086;16.426;2024-02-26T08:25:25;10.00;68.60
17415;DHT22;8825;48.086;16.426;2024-02-26T08:27:53;10.10;68.50
17415;DHT22;8825;48.086;16.426;2024-02-26T08:30:21;10.20;68.30
17415;DHT22;8825;48.086;16.426;2024-02-26T08:32:49;10.30;68.00
17415;DHT22;8825;48.086;16.426;2024-02-26T08:35:16;10.30;67.40
17415;DHT22;8825;48.086;16.426;2024-02-26T08:37:47;10.40;67.50
17415;DHT22;8825;48.086;16.426;2024-02-26T08:40:15;10.50;67.20
17415;DHT22;8825;48.086;16.426;2024-02-26T08:42:43;10.70;67.30
17415;DHT22;8825;48.086;16.426;2024-02-26T08:45:10;10.80;67.10
17415;DHT22;8825;48.086;16.426;2024-02-26T08:47:39;10.90;66.90
17415;DHT22;8825;48.086;16.426;2024-02-26T08:50:07;10.90;66.10
17415;DHT22;8825;48.086;16.426;2024-02-26T08:52:36;10.90;65.90
17415;DHT22;8825;48.086;16.426;2024-02-26T08:55:04;11.00;65.50
17415;DHT22;8825;48.086;16.426;2024-02-26T08:57:32;11.10;64.90
17415;DHT22;8825;48.086;16.426;2024-02-26T09:00:01;11.10;62.80
17415;DHT22;8825;48.086;16.426;2024-02-26T09:02:28;11.20;63.10
17415;DHT22;8825;48.086;16.426;2024-02-26T09:04:56;11.30;63.10
17415;DHT22;8825;48.086;16.426;2024-02-26T09:07:24;11.40;61.90
17415;DHT22;8825;48.086;16.426;2024-02-26T09:09:51;11.50;60.80
17415;DHT22;8825;48.086;16.426;2024-02-26T09:12:19;11.50;60.40
17415;DHT22;8825;48.086;16.426;2024-02-26T09:14:47;11.70;60.40
17415;DHT22;8825;48.086;16.426;2024-02-26T09:17:15;11.80;59.20
17415;DHT22;8825;48.086;16.426;2024-02-26T09:19:42;12.00;59.00
17415;DHT22;8825;48.086;16.426;2024-02-26T09:22:10;12.20;58.80
17415;DHT22;8825;48.086;16.426;2024-02-26T09:24:38;12.30;58.20
17415;DHT22;8825;48.086;16.426;2024-02-26T09:27:05;12.50;57.40
17415;DHT22;8825;48.086;16.426;2024-02-26T09:29:35;12.80;57.50
17415;DHT22;8825;48.086;16.426;2024-02-26T09:32:03;13.10;57.00
17415;DHT22;8825;48.086;16.426;2024-02-26T09:34:31;13.40;55.60
17415;DHT22;8825;48.086;16.426;2024-02-26T09:37:00;13.80;54.90
17415;DHT22;8825;48.086;16.426;2024-02-26T09:39:28;14.10;53.70
17415;DHT22;8825;48.086;16.426;2024-02-26T09:41:57;14.50;52.50
17415;DHT22;8825;48.086;16.426;2024-02-26T09:44:27;14.70;51.40
17415;DHT22;8825;48.086;16.426;2024-02-26T09:46:57;14.90;50.90
17415;DHT22;8825;48.086;16.426;2024-02-26T09:49:25;15.20;51.00
17415;DHT22;8825;48.086;16.426;2024-02-26T09:51:54;15.40;50.60
17415;DHT22;8825;48.086;16.426;2024-02-26T09:54:24;15.70;50.20
17415;DHT22;8825;48.086;16.426;2024-02-26T09:56:55;15.90;50.00
17415;DHT22;8825;48.086;16.426;2024-02-26T09:59:25;16.20;49.60
17415;DHT22;8825;48.086;16.426;2024-02-26T10:01:54;16.20;49.00
17415;DHT22;8825;48.086;16.426;2024-02-26T10:04:22;16.30;47.60
17415;DHT22;8825;48.086;16.426;2024-02-26T10:06:51;16.10;47.00
17415;DHT22;8825;48.086;16.426;2024-02-26T10:09:19;15.90;47.40
17415;DHT22;8825;48.086;16.426;2024-02-26T10:11:47;15.90;47.90
17415;DHT22;8825;48.086;16.426;2024-02-26T10:14:16;16.00;47.80
17415;DHT22;8825;48.086;16.426;2024-02-26T10:16:43;16.10;48.20
17415;DHT22;8825;48.086;16.426;2024-02-26T10:19:24;16.20;47.80
17415;DHT22;8825;48.086;16.426;2024-02-26T10:21:42;16.40;48.00
17415;DHT22;8825;48.086;16.426;2024-02-26T10:24:14;16.60;47.50
17415;DHT22;8825;48.086;16.426;2024-02-26T10:26:46;16.70;47.10
17415;DHT22;8825;48.086;16.426;2024-02-26T10:29:14;16.70;46.40
17415;DHT22;8825;48.086;16.426;2024-02-26T10:31:45;16.70;46.60
17415;DHT22;8825;48.086;16.426;2024-02-26T10:34:12;16.90;46.90
17415;DHT22;8825;48.086;16.426;2024-02-26T10:36:42;17.10;46.20
17415;DHT22;8825;48.086;16.426;2024-02-26T10:39:12;17.20;45.20
17415;DHT22;8825;48.086;16.426;2024-02-26T10:41:44;17.30;45.20
17415;DHT22;8825;48.086;16.426;2024-02-26T10:44:13;17.50;45.20
17415;DHT22;8825;48.086;16.426;2024-02-26T10:46:41;17.70;45.00
17415;DHT22;8825;48.086;16.426;2024-02-26T10:49:15;17.70;43.70
17415;DHT22;8825;48.086;16.426;2024-02-26T10:51:41;17.70;43.70
17415;DHT22;8825;48.086;16.426;2024-02-26T10:54:12;17.60;43.20
17415;DHT22;8825;48.086;16.426;2024-02-26T10:56:41;17.50;43.20
17415;DHT22;8825;48.086;16.426;2024-02-26T10:59:10;17.50;43.00
17415;DHT22;8825;48.086;16.426;2024-02-26T11:01:39;17.70;43.70
17415;DHT22;8825;48.086;16.426;2024-02-26T11:04:10;18.00;43.70
17415;DHT22;8825;48.086;16.426;2024-02-26T11:06:38;18.20;43.30
17415;DHT22;8825;48.086;16.426;2024-02-26T11:09:09;18.30;43.30
17415;DHT22;8825;48.086;16.426;2024-02-26T11:11:39;18.30;41.30
17415;DHT22;8825;48.086;16.426;2024-02-26T11:14:09;18.20;39.70
17415;DHT22;8825;48.086;16.426;2024-02-26T11:16:38;18.10;39.60
17415;DHT22;8825;48.086;16.426;2024-02-26T11:19:09;18.00;39.60
17415;DHT22;8825;48.086;16.426;2024-02-26T11:21:38;17.90;38.80
17415;DHT22;8825;48.086;16.426;2024-02-26T11:24:11;17.70;39.50
17415;DHT22;8825;48.086;16.426;2024-02-26T11:26:51;17.30;38.90
17415;DHT22;8825;48.086;16.426;2024-02-26T11:29:22;17.00;38.00
17415;DHT22;8825;48.086;16.426;2024-02-26T11:31:50;16.50;38.10
17415;DHT22;8825;48.086;16.426;2024-02-26T11:34:19;16.10;39.30
17415;DHT22;8825;48.086;16.426;2024-02-26T11:36:47;15.80;38.90
17415;DHT22;8825;48.086;16.426;2024-02-26T11:39:15;15.60;40.30
17415;DHT22;8825;48.086;16.426;2024-02-26T11:41:43;15.60;41.40
17415;DHT22;8825;48.086;16.426;2024-02-26T11:44:11;15.70;42.60
17415;DHT22;8825;48.086;16.426;2024-02-26T11:46:42;15.90;43.20
17415;DHT22;8825;48.086;16.426;2024-02-26T11:49:30;15.90;42.20
17415;DHT22;8825;48.086;16.426;2024-02-26T11:51:59;15.80;41.00
17415;DHT22;8825;48.086;16.426;2024-02-26T11:57:38;15.50;41.80
17415;DHT22;8825;48.086;16.426;2024-02-26T12:00:14;15.40;40.30
17415;DHT22;8825;48.086;16.426;2024-02-26T12:02:51;15.20;40.70
17415;DHT22;8825;48.086;16.426;2024-02-26T12:05:30;15.30;41.30
17415;DHT22;8825;48.086;16.426;2024-02-26T12:08:01;15.40;40.80
17415;DHT22;8825;48.086;16.426;2024-02-26T12:10:49;15.30;41.10
17415;DHT22;8825;48.086;16.426;2024-02-26T12:13:18;15.30;40.90
17415;DHT22;8825;48.086;16.426;2024-02-26T12:15:57;15.40;41.40
17415;DHT22;8825;48.086;16.426;2024-02-26T12:18:25;15.50;41.40
17415;DHT22;8825;48.086;16.426;2024-02-26T12:21:01;15.60;41.40
17415;DHT22;8825;48.086;16.426;2024-02-26T12:23:29;15.60;41.10
17415;DHT22;8825;48.086;16.426;2024-02-26T12:26:00;15.60;41.30
17415;DHT22;8825;48.086;16.426;2024-02-26T12:28:30;15.60;41.30
17415;DHT22;8825;48.086;16.426;2024-02-26T12:30:58;15.60;41.30
17415;DHT22;8825;48.086;16.426;2024-02-26T12:33:26;15.70;41.30
17415;DHT22;8825;48.086;16.426;2024-02-26T12:35:54;15.80;41.70
17415;DHT22;8825;48.086;16.426;2024-02-26T12:38:21;15.80;41.10
17415;DHT22;8825;48.086;16.426;2024-02-26T12:40:49;15.80;41.90
17415;DHT22;8825;48.086;16.426;2024-02-26T12:43:17;16.00;42.20
17415;DHT22;8825;48.086;16.426;2024-02-26T12:45:44;16.00;41.60
17415;DHT22;8825;48.086;16.426;2024-02-26T12:48:13;16.00;42.10
17415;DHT22;8825;48.086;16.426;2024-02-26T12:50:45;16.00;42.30
17415;DHT22;8825;48.086;16.426;2024-02-26T12:53:16;16.00;41.90
17415;DHT22;8825;48.086;16.426;2024-02-26T12:55:44;16.00;41.40
17415;DHT22;8825;48.086;16.426;2024-02-26T12:58:12;16.00;41.50
17415;DHT22;8825;48.086;16.426;2024-02-26T13:00:40;15.90;41.90
17415;DHT22;8825;48.086;16.426;2024-02-26T13:03:09;15.80;42.30
17415;DHT22;8825;48.086;16.426;2024-02-26T13:05:37;15.80;42.50
17415;DHT22;8825;48.086;16.426;2024-02-26T13:08:05;15.70;42.00
17415;DHT22;8825;48.086;16.426;2024-02-26T13:10:33;15.60;42.10
17415;DHT22;8825;48.086;16.426;2024-02-26T13:13:02;15.40;42.70
17415;DHT22;8825;48.086;16.426;2024-02-26T13:15:30;15.40;42.30
17415;DHT22;8825;48.086;16.426;2024-02-26T13:18:08;15.30;42.40
17415;DHT22;8825;48.086;16.426;2024-02-26T13:20:30;15.20;42.20
17415;DHT22;8825;48.086;16.426;2024-02-26T13:23:10;15.10;43.00
17415;DHT22;8825;48.086;16.426;2024-02-26T13:25:35;15.00;43.50
17415;DHT22;8825;48.086;16.426;2024-02-26T13:28:15;15.00;43.70
17415;DHT22;8825;48.086;16.426;2024-02-26T13:30:56;14.90;43.40
17415;DHT22;8825;48.086;16.426;2024-02-26T13:33:25;14.80;43.70
17415;DHT22;8825;48.086;16.426;2024-02-26T13:35:53;14.70;42.90
17415;DHT22;8825;48.086;16.426;2024-02-26T13:38:21;14.70;43.80
17415;DHT22;8825;48.086;16.426;2024-02-26T13:40:53;14.80;44.10
17415;DHT22;8825;48.086;16.426;2024-02-26T13:43:18;14.80;43.90
17415;DHT22;8825;48.086;16.426;2024-02-26T13:45:46;14.70;43.70
17415;DHT22;8825;48.086;16.426;2024-02-26T13:48:15;14.80;44.40
17415;DHT22;8825;48.086;16.426;2024-02-26T13:50:43;14.70;44.80
17415;DHT22;8825;48.086;16.426;2024-02-26T13:53:12;14.80;44.20
17415;DHT22;8825;48.086;16.426;2024-02-26T13:55:41;14.90;44.40
17415;DHT22;8825;48.086;16.426;2024-02-26T13:58:12;15.00;44.60
17415;DHT22;8825;48.086;16.426;2024-02-26T14:00:44;14.90;45.10
17415;DHT22;8825;48.086;16.426;2024-02-26T14:03:12;14.80;44.30
17415;DHT22;8825;48.086;16.426;2024-02-26T14:05:39;14.80;45.80
17415;DHT22;8825;48.086;16.426;2024-02-26T14:08:07;14.80;45.10
17415;DHT22;8825;48.086;16.426;2024-02-26T14:10:35;14.80;45.40
17415;DHT22;8825;48.086;16.426;2024-02-26T14:13:02;14.80;45.00
17415;DHT22;8825;48.086;16.426;2024-02-26T14:15:30;14.80;44.70
17415;DHT22;8825;48.086;16.426;2024-02-26T14:17:59;14.90;45.20
17415;DHT22;8825;48.086;16.426;2024-02-26T14:20:28;15.00;44.80
17415;DHT22;8825;48.086;16.426;2024-02-26T14:22:55;15.00;44.90
17415;DHT22;8825;48.086;16.426;2024-02-26T14:25:23;15.00;44.70
17415;DHT22;8825;48.086;16.426;2024-02-26T14:27:51;14.90;45.00
17415;DHT22;8825;48.086;16.426;2024-02-26T14:30:18;14.90;44.70
17415;DHT22;8825;48.086;16.426;2024-02-26T14:32:46;14.90;44.70
17415;DHT22;8825;48.086;16.426;2024-02-26T14:35:13;14.90;44.60
17415;DHT22;8825;48.086;16.426;2024-02-26T14:37:41;14.90;44.50
17415;DHT22;8825;48.086;16.426;2024-02-26T14:40:10;14.90;44.60
17415;DHT22;8825;48.086;16.426;2024-02-26T14:42:57;14.80;45.00
17415;DHT22;8825;48.086;16.426;2024-02-26T14:45:27;14.80;45.00
17415;DHT22;8825;48.086;16.426;2024-02-26T14:47:55;14.70;45.30
17415;DHT22;8825;48.086;16.426;2024-02-26T14:50:22;14.70;45.50
17415;DHT22;8825;48.086;16.426;2024-02-26T14:52:50;14.60;45.80
17415;DHT22;8825;48.086;16.426;2024-02-26T14:55:17;14.50;45.30
17415;DHT22;8825;48.086;16.426;2024-02-26T14:57:45;14.40;45.70
17415;DHT22;8825;48.086;16.426;2024-02-26T15:00:13;14.30;46.00
17415;DHT22;8825;48.086;16.426;2024-02-26T15:02:40;14.20;46.10
17415;DHT22;8825;48.086;16.426;2024-02-26T15:05:08;14.20;46.30
17415;DHT22;8825;48.086;16.426;2024-02-26T15:07:37;14.10;45.80
17415;DHT22;8825;48.086;16.426;2024-02-26T15:10:08;14.10;46.30
17415;DHT22;8825;48.086;16.426;2024-02-26T15:12:35;14.00;46.80
17415;DHT22;8825;48.086;16.426;2024-02-26T15:15:04;14.00;46.60
17415;DHT22;8825;48.086;16.426;2024-02-26T15:17:32;13.90;46.40
17415;DHT22;8825;48.086;16.426;2024-02-26T15:20:01;13.80;46.30
17415;DHT22;8825;48.086;16.426;2024-02-26T15:22:29;13.80;46.70
17415;DHT22;8825;48.086;16.426;2024-02-26T15:24:56;13.80;47.20
17415;DHT22;8825;48.086;16.426;2024-02-26T15:27:24;13.70;47.60
17415;DHT22;8825;48.086;16.426;2024-02-26T15:29:51;13.70;47.60
17415;DHT22;8825;48.086;16.426;2024-02-26T15:32:20;13.70;47.30
17415;DHT22;8825;48.086;16.426;2024-02-26T15:34:48;13.70;46.90
17415;DHT22;8825;48.086;16.426;2024-02-26T15:37:15;13.70;46.90
17415;DHT22;8825;48.086;16.426;2024-02-26T15:39:43;13.70;47.00
17415;DHT22;8825;48.086;16.426;2024-02-26T15:42:12;13.70;47.00
17415;DHT22;8825;48.086;16.426;2024-02-26T15:44:41;13.70;47.30
17415;DHT22;8825;48.086;16.426;2024-02-26T15:47:09;13.70;47.30
17415;DHT22;8825;48.086;16.426;2024-02-26T15:49:37;13.70;47.30
17415;DHT22;8825;48.086;16.426;2024-02-26T15:52:05;13.60;47.50